Time;durP1;ratioP1;P1;durP2;ratioP2;P2;SDS_P1;SDS_P2;PMS_P1;PMS_P2;Temp;Humidity;BMP_temperature;BMP_pressure;BME280_temperature;BME280_humidity;BME280_pressure;Samples;Min_cycle;Max_cycle;Signal;HPM_P1;HPM_P2
2022/11/28 00:00:39;;;;;;;;;;;;;;;;;;5076105;28;19920;-81
2022/11/28 00:03:04;;;;;;;;;;;;;;;;;;5078517;28;19916;-82
2022/11/28 00:05:29;;;;;;;;;;;;;;;;;;5079826;28;19919;-82
2022/11/28 00:07:54;;;;;;;;;;;;;;;;;;5072921;28;19920;-82
2022/11/28 00:10:19;;;;;;;;;;;;;;;;;;5082276;28;21677;-82
2022/11/28 00:12:47;;;;;;;;;;;;;;;;;;5068466;28;19920;-82
2022/11/28 00:15:12;;;;;;;;;;;;;;;;;;5072142;28;19920;-82
2022/11/28 00:17:37;;;;;;;;;;;;;;;;;;5070667;28;20415;-82
2022/11/28 00:20:02;;;;;;;;;;;;;;;;;;5070248;28;19918;-82
2022/11/28 00:22:28;;;;;;;;;;;;;;;;;;5070930;28;19942;-82
2022/11/28 00:24:53;;;;;;;;;;;;;;;;;;5072551;28;19908;-82
2022/11/28 00:27:18;;;;;;;;;;;;;;;;;;5070881;28;20405;-82
2022/11/28 00:29:43;;;;;;;;;;;;;;;;;;5071576;28;20300;-82
2022/11/28 00:32:08;;;;;;;;;;;;;;;;;;5068702;28;19908;-82
2022/11/28 00:34:33;;;;;;;;;;;;;;;;;;5071628;28;19917;-82
2022/11/28 00:36:59;;;;;;;;;;;;;;;;;;5072071;28;19916;-81
2022/11/28 00:39:24;;;;;;;;;;;;;;;;;;5068126;28;20370;-82
2022/11/28 00:41:49;;;;;;;;;;;;;;;;;;5085685;28;20389;-81
2022/11/28 00:44:14;;;;;;;;;;;;;;;;;;5071801;28;20006;-81
2022/11/28 00:46:39;;;;;;;;;;;;;;;;;;5067584;28;19916;-82
2022/11/28 00:49:04;;;;;;;;;;;;;;;;;;5070850;28;19913;-82
2022/11/28 00:51:30;;;;;;;;;;;;;;;;;;5070900;28;19958;-81
2022/11/28 00:53:55;;;;;;;;;;;;;;;;;;5073460;28;20348;-81
2022/11/28 00:56:20;;;;;;;;;;;;;;;;;;5095259;28;19908;-81
2022/11/28 00:58:47;;;;;;;;;;;;;;;;;;5060928;28;19923;-81
2022/11/28 01:01:13;;;;;;;;;;;;;;;;;;5093105;28;20362;-81
2022/11/28 01:03:38;;;;;;;;;;;;;;;;;;5065339;28;20386;-81
2022/11/28 01:06:03;;;;;;;;;;;;;;;;;;5071965;28;20427;-82
2022/11/28 01:08:28;;;;;;;;;;;;;;;;;;5070382;28;19943;-82
2022/11/28 01:10:53;;;;;;;;;;;;;;;;;;5070441;28;19916;-82
2022/11/28 01:13:18;;;;;;;;;;;;;;;;;;5092953;28;19923;-81
2022/11/28 01:15:46;;;;;;;;;;;;;;;;;;5093062;28;20429;-81
2022/11/28 01:18:12;;;;;;;;;;;;;;;;;;5090696;28;20593;-82
2022/11/28 01:20:37;;;;;;;;;;;;;;;;;;5092243;28;19920;-81
2022/11/28 01:23:02;;;;;;;;;;;;;;;;;;5090968;28;19912;-81
2022/11/28 01:25:27;;;;;;;;;;;;;;;;;;5075155;28;19920;-81
2022/11/28 01:27:52;;;;;;;;;;;;;;;;;;5084716;28;19920;-81
2022/11/28 01:30:17;;;;;;;;;;;;;;;;;;5078657;28;20011;-81
2022/11/28 01:32:43;;;;;;;;;;;;;;;;;;5071898;28;19912;-81
2022/11/28 01:35:08;;;;;;;;;;;;;;;;;;5065642;28;20011;-82
2022/11/28 01:37:33;;;;;;;;;;;;;;;;;;5074046;28;19912;-81
2022/11/28 01:39:58;;;;;;;;;;;;;;;;;;5091837;28;19923;-81
2022/11/28 01:42:23;;;;;;;;;;;;;;;;;;5073108;28;19913;-82
2022/11/28 01:44:48;;;;;;;;;;;;;;;;;;5073099;28;20327;-81
2022/11/28 01:47:13;;;;;;;;;;;;;;;;;;5092398;28;19924;-81
2022/11/28 01:49:39;;;;;;;;;;;;;;;;;;5059307;28;19948;-82
2022/11/28 01:52:04;;;;;;;;;;;;;;;;;;5091596;28;20423;-82
2022/11/28 01:54:29;;;;;;;;;;;;;;;;;;5092631;28;19966;-81
2022/11/28 01:56:55;;;;;;;;;;;;;;;;;;5069524;28;20369;-81
2022/11/28 01:59:20;;;;;;;;;;;;;;;;;;5090309;28;19999;-82
2022/11/28 02:01:45;;;;;;;;;;;;;;;;;;5092312;28;19913;-82
2022/11/28 02:04:10;;;;;;;;;;;;;;;;;;5071755;28;19913;-81
2022/11/28 02:06:35;;;;;;;;;;;;;;;;;;5061292;28;19916;-81
2022/11/28 02:09:00;;;;;;;;;;;;;;;;;;5068108;28;20369;-81
2022/11/28 02:11:26;;;;;;;;;;;;;;;;;;5089917;28;19924;-81
2022/11/28 02:13:51;;;;;;;;;;;;;;;;;;5086464;28;19916;-81
2022/11/28 02:16:16;;;;;;;;;;;;;;;;;;5081978;28;19919;-81
2022/11/28 02:18:41;;;;;;;;;;;;;;;;;;5082570;28;20000;-81
2022/11/28 02:21:06;;;;;;;;;;;;;;;;;;5090770;28;20364;-81
2022/11/28 02:23:31;;;;;;;;;;;;;;;;;;5091813;28;20386;-81
2022/11/28 02:25:57;;;;;;;;;;;;;;;;;;5093427;28;20015;-81
2022/11/28 02:28:22;;;;;;;;;;;;;;;;;;5089613;28;20369;-81
2022/11/28 02:30:47;;;;;;;;;;;;;;;;;;5084367;28;20004;-81
2022/11/28 02:33:12;;;;;;;;;;;;;;;;;;5071719;28;19958;-81
2022/11/28 02:35:37;;;;;;;;;;;;;;;;;;5080452;28;20331;-81
2022/11/28 02:38:02;;;;;;;;;;;;;;;;;;5084285;28;19947;-81
2022/11/28 02:40:28;;;;;;;;;;;;;;;;;;5105886;28;20369;-81
2022/11/28 02:42:53;;;;;;;;;;;;;;;;;;5080775;28;19912;-82
2022/11/28 02:45:18;;;;;;;;;;;;;;;;;;5088869;28;19924;-82
2022/11/28 02:47:43;;;;;;;;;;;;;;;;;;5079047;28;19916;-81
2022/11/28 02:50:08;;;;;;;;;;;;;;;;;;5081733;28;20429;-82
2022/11/28 02:52:34;;;;;;;;;;;;;;;;;;5077031;28;19916;-82
2022/11/28 02:54:59;;;;;;;;;;;;;;;;;;5090587;28;19955;-82
2022/11/28 02:57:24;;;;;;;;;;;;;;;;;;5104447;28;19912;-81
2022/11/28 02:59:49;;;;;;;;;;;;;;;;;;5096947;28;19912;-81
2022/11/28 03:02:14;;;;;;;;;;;;;;;;;;5084997;28;19911;-82
2022/11/28 03:04:40;;;;;;;;;;;;;;;;;;5089800;28;19907;-82
2022/11/28 03:07:05;;;;;;;;;;;;;;;;;;5089888;28;19916;-82
2022/11/28 03:09:30;;;;;;;;;;;;;;;;;;5081900;28;19973;-82
2022/11/28 03:11:55;;;;;;;;;;;;;;;;;;5072495;28;19920;-82
2022/11/28 03:14:20;;;;;;;;;;;;;;;;;;5070208;28;20041;-82
2022/11/28 03:16:45;;;;;;;;;;;;;;;;;;5065911;28;19908;-81
2022/11/28 03:19:13;;;;;;;;;;;;;;;;;;5070014;28;19919;-82
2022/11/28 03:21:38;;;;;;;;;;;;;;;;;;5068312;28;19916;-82
2022/11/28 03:24:03;;;;;;;;;;;;;;;;;;5066359;28;19957;-82
2022/11/28 03:26:29;;;;;;;;;;;;;;;;;;5073011;28;19916;-82
2022/11/28 03:28:54;;;;;;;;;;;;;;;;;;5070587;28;19940;-81
2022/11/28 03:31:19;;;;;;;;;;;;;;;;;;5066951;28;20281;-81
2022/11/28 03:33:44;;;;;;;;;;;;;;;;;;5085107;28;19912;-81
2022/11/28 03:36:09;;;;;;;;;;;;;;;;;;5072189;28;19987;-82
2022/11/28 03:38:34;;;;;;;;;;;;;;;;;;5067635;28;19919;-81
2022/11/28 03:41:00;;;;;;;;;;;;;;;;;;5069971;28;19919;-82
2022/11/28 03:43:25;;;;;;;;;;;;;;;;;;5070368;28;20003;-82
2022/11/28 03:45:50;;;;;;;;;;;;;;;;;;5071846;28;19919;-82
2022/11/28 03:48:15;;;;;;;;;;;;;;;;;;5089301;28;20289;-81
2022/11/28 03:50:40;;;;;;;;;;;;;;;;;;5068870;28;20341;-82
2022/11/28 03:53:05;;;;;;;;;;;;;;;;;;5070787;28;20365;-82
2022/11/28 03:55:30;;;;;;;;;;;;;;;;;;5065528;28;20425;-82
2022/11/28 03:57:55;;;;;;;;;;;;;;;;;;5065910;28;19912;-82
2022/11/28 04:00:21;;;;;;;;;;;;;;;;;;5085431;28;19927;-82
2022/11/28 04:02:46;;;;;;;;;;;;;;;;;;5072131;28;20330;-82
2022/11/28 04:05:11;;;;;;;;;;;;;;;;;;5071731;28;19912;-81
2022/11/28 04:07:36;;;;;;;;;;;;;;;;;;5071906;28;20378;-80
2022/11/28 04:10:01;;;;;;;;;;;;;;;;;;5069218;28;20349;-81
2022/11/28 04:12:27;;;;;;;;;;;;;;;;;;5104938;28;20212;-80
2022/11/28 04:14:52;;;;;;;;;;;;;;;;;;5089748;28;19912;-81
2022/11/28 04:17:17;;;;;;;;;;;;;;;;;;5092715;28;19951;-81
2022/11/28 04:19:42;;;;;;;;;;;;;;;;;;5089927;28;20362;-81
2022/11/28 04:22:08;;;;;;;;;;;;;;;;;;5085261;28;19930;-82
2022/11/28 04:24:33;;;;;;;;;;;;;;;;;;5089709;28;19958;-81
2022/11/28 04:26:58;;;;;;;;;;;;;;;;;;5093952;28;19955;-81
2022/11/28 04:29:24;;;;;;;;;;;;;;;;;;5095421;28;19918;-81
2022/11/28 04:31:49;;;;;;;;;;;;;;;;;;5096014;28;19915;-81
2022/11/28 04:34:14;;;;;;;;;;;;;;;;;;5095088;28;19919;-81
2022/11/28 04:36:39;;;;;;;;;;;;;;;;;;5096441;28;19912;-81
2022/11/28 04:39:04;;;;;;;;;;;;;;;;;;5094133;28;19912;-82
2022/11/28 04:41:29;;;;;;;;;;;;;;;;;;5094833;28;19911;-81
2022/11/28 04:43:56;;;;;;;;;;;;;;;;;;5094130;28;19916;-81
2022/11/28 04:46:21;;;;;;;;;;;;;;;;;;5112314;28;19916;-82
2022/11/28 04:48:46;;;;;;;;;;;;;;;;;;5096554;28;20276;-81
2022/11/28 04:51:11;;;;;;;;;;;;;;;;;;5092989;28;19957;-81
2022/11/28 04:53:36;;;;;;;;;;;;;;;;;;5097002;28;20327;-81
2022/11/28 04:56:01;;;;;;;;;;;;;;;;;;5094303;28;19934;-81
2022/11/28 04:58:26;;;;;;;;;;;;;;;;;;5095399;28;19941;-82
2022/11/28 05:00:52;;;;;;;;;;;;;;;;;;5091321;28;19912;-81
2022/11/28 05:03:17;;;;;;;;;;;;;;;;;;5125868;27;19907;-82
2022/11/28 05:05:42;;;;;;;;;;;;;;;;;;5103099;28;19965;-82
2022/11/28 05:08:07;;;;;;;;;;;;;;;;;;5095544;28;19926;-82
2022/11/28 05:10:33;;;;;;;;;;;;;;;;;;5090039;28;19957;-82
2022/11/28 05:12:58;;;;;;;;;;;;;;;;;;5092189;28;20288;-81
2022/11/28 05:15:24;;;;;;;;;;;;;;;;;;5090212;28;19919;-81
2022/11/28 05:17:49;;;;;;;;;;;;;;;;;;5110787;28;19967;-81
2022/11/28 05:20:14;;;;;;;;;;;;;;;;;;5095021;28;19912;-82
2022/11/28 05:22:39;;;;;;;;;;;;;;;;;;5092402;28;19916;-82
2022/11/28 05:25:04;;;;;;;;;;;;;;;;;;5095440;28;20361;-82
2022/11/28 05:27:29;;;;;;;;;;;;;;;;;;5089869;28;20244;-82
2022/11/28 05:29:54;;;;;;;;;;;;;;;;;;5082879;28;19919;-82
2022/11/28 05:32:20;;;;;;;;;;;;;;;;;;5087127;28;20062;-80
2022/11/28 05:34:45;;;;;;;;;;;;;;;;;;5110158;28;20328;-81
2022/11/28 05:37:10;;;;;;;;;;;;;;;;;;5092449;28;21184;-81
2022/11/28 05:39:35;;;;;;;;;;;;;;;;;;5087210;28;19919;-81
2022/11/28 05:42:00;;;;;;;;;;;;;;;;;;5085198;28;20413;-81
2022/11/28 05:44:25;;;;;;;;;;;;;;;;;;5105129;28;20412;-81
2022/11/28 05:46:50;;;;;;;;;;;;;;;;;;5089700;28;19916;-81
2022/11/28 05:49:16;;;;;;;;;;;;;;;;;;5090871;28;19907;-79
2022/11/28 05:51:41;;;;;;;;;;;;;;;;;;5092386;28;19911;-80
2022/11/28 05:54:06;;;;;;;;;;;;;;;;;;5095089;28;20373;-80
2022/11/28 05:56:31;;;;;;;;;;;;;;;;;;5091341;28;21534;-81
2022/11/28 05:58:56;;;;;;;;;;;;;;;;;;5091875;28;19918;-80
2022/11/28 06:01:21;;;;;;;;;;;;;;;;;;5087795;28;19946;-80
2022/11/28 06:03:46;;;;;;;;;;;;;;;;;;5090274;28;19912;-80
2022/11/28 06:06:12;;;;;;;;;;;;;;;;;;5094023;28;19922;-80
2022/11/28 06:08:37;;;;;;;;;;;;;;;;;;5102881;27;19946;-82
2022/11/28 06:11:02;;;;;;;;;;;;;;;;;;5111127;28;19933;-81
2022/11/28 06:13:28;;;;;;;;;;;;;;;;;;5092824;28;20284;-81
2022/11/28 06:15:53;;;;;;;;;;;;;;;;;;5089388;28;19927;-80
2022/11/28 06:18:18;;;;;;;;;;;;;;;;;;5088567;28;20702;-79
2022/11/28 06:20:43;;;;;;;;;;;;;;;;;;5092918;28;20394;-80
2022/11/28 06:23:08;;;;;;;;;;;;;;;;;;5092560;28;19912;-79
2022/11/28 06:25:33;;;;;;;;;;;;;;;;;;5089636;28;19912;-81
2022/11/28 06:27:59;;;;;;;;;;;;;;;;;;5092630;28;20289;-81
2022/11/28 06:30:24;;;;;;;;;;;;;;;;;;5108788;28;19957;-81
2022/11/28 06:32:49;;;;;;;;;;;;;;;;;;5094551;28;20395;-81
2022/11/28 06:35:14;;;;;;;;;;;;;;;;;;5092456;28;19920;-82
2022/11/28 06:37:39;;;;;;;;;;;;;;;;;;5111531;28;19911;-81
2022/11/28 06:40:04;;;;;;;;;;;;;;;;;;5093228;28;19916;-81
2022/11/28 06:42:29;;;;;;;;;;;;;;;;;;5081117;28;19966;-81
2022/11/28 06:44:55;;;;;;;;;;;;;;;;;;5094860;28;20329;-80
2022/11/28 06:47:20;;;;;;;;;;;;;;;;;;5093277;28;19920;-80
2022/11/28 06:49:45;;;;;;;;;;;;;;;;;;5087237;28;19927;-80
2022/11/28 06:52:10;;;;;;;;;;;;;;;;;;5094159;28;19962;-80
2022/11/28 06:54:35;;;;;;;;;;;;;;;;;;5093524;28;20362;-80
2022/11/28 06:57:00;;;;;;;;;;;;;;;;;;5093138;28;19912;-81
2022/11/28 06:59:25;;;;;;;;;;;;;;;;;;5091390;28;19920;-79
2022/11/28 07:01:51;;;;;;;;;;;;;;;;;;5093469;28;20006;-80
2022/11/28 07:04:16;;;;;;;;;;;;;;;;;;5094035;28;19992;-79
2022/11/28 07:06:43;;;;;;;;;;;;;;;;;;5089201;28;19916;-80
2022/11/28 07:09:08;;;;;;;;;;;;;;;;;;5093532;28;19938;-80
2022/11/28 07:11:33;;;;;;;;;;;;;;;;;;5091515;28;20368;-80
2022/11/28 07:13:58;;;;;;;;;;;;;;;;;;5095529;28;19954;-80
2022/11/28 07:16:24;;;;;;;;;;;;;;;;;;5093361;28;19908;-80
2022/11/28 07:18:49;;;;;;;;;;;;;;;;;;5094219;28;20407;-80
2022/11/28 07:21:14;;;;;;;;;;;;;;;;;;5093844;28;19965;-80
2022/11/28 07:23:39;;;;;;;;;;;;;;;;;;5095296;28;19915;-81
2022/11/28 07:26:04;;;;;;;;;;;;;;;;;;5094395;28;20339;-81
2022/11/28 07:28:30;;;;;;;;;;;;;;;;;;5093198;28;19918;-80
2022/11/28 07:30:55;;;;;;;;;;;;;;;;;;5093281;28;19934;-80
2022/11/28 07:33:20;;;;;;;;;;;;;;;;;;5095240;28;20273;-81
2022/11/28 07:35:45;;;;;;;;;;;;;;;;;;5111814;28;19956;-81
2022/11/28 07:38:10;;;;;;;;;;;;;;;;;;5108377;28;20056;-80
2022/11/28 07:40:35;;;;;;;;;;;;;;;;;;5093285;28;19912;-80
2022/11/28 07:43:00;;;;;;;;;;;;;;;;;;5084116;28;19935;-80
2022/11/28 07:45:26;;;;;;;;;;;;;;;;;;5095118;28;20365;-80
2022/11/28 07:47:51;;;;;;;;;;;;;;;;;;5094143;28;19916;-80
2022/11/28 07:50:16;;;;;;;;;;;;;;;;;;5083776;28;19916;-80
2022/11/28 07:52:41;;;;;;;;;;;;;;;;;;5093804;28;19957;-81
2022/11/28 07:55:06;;;;;;;;;;;;;;;;;;5093428;28;19919;-81
2022/11/28 07:57:32;;;;;;;;;;;;;;;;;;5094537;28;19907;-81
2022/11/28 07:59:57;;;;;;;;;;;;;;;;;;5093512;28;19915;-81
2022/11/28 08:02:22;;;;;;;;;;;;;;;;;;5094526;28;19912;-80
2022/11/28 08:04:47;;;;;;;;;;;;;;;;;;5093603;28;19920;-80
2022/11/28 08:07:12;;;;;;;;;;;;;;;;;;5094270;28;20018;-80
2022/11/28 08:09:38;;;;;;;;;;;;;;;;;;5092228;28;19915;-81
2022/11/28 08:12:03;;;;;;;;;;;;;;;;;;5091971;28;19920;-80
2022/11/28 08:14:28;;;;;;;;;;;;;;;;;;5086601;28;20340;-80
2022/11/28 08:16:53;;;;;;;;;;;;;;;;;;5074540;28;19950;-80
2022/11/28 08:19:18;;;;;;;;;;;;;;;;;;5087059;28;20365;-81
2022/11/28 08:21:43;;;;;;;;;;;;;;;;;;5073651;28;19912;-81
2022/11/28 08:24:12;;;;;;;;;;;;;;;;;;5073240;28;19919;-80
2022/11/28 08:26:37;;;;;;;;;;;;;;;;;;5073106;28;19946;-81
2022/11/28 08:29:02;;;;;;;;;;;;;;;;;;5074139;28;19912;-81
2022/11/28 08:31:27;;;;;;;;;;;;;;;;;;5070148;28;20020;-81
2022/11/28 08:33:52;;;;;;;;;;;;;;;;;;5077653;28;20002;-81
2022/11/28 08:36:18;;;;;;;;;;;;;;;;;;5069362;28;20382;-81
2022/11/28 08:38:44;;;;;;;;;;;;;;;;;;5069619;28;19912;-80
2022/11/28 08:41:10;;;;;;;;;;;;;;;;;;5058476;28;19960;-81
2022/11/28 08:43:35;;;;;;;;;;;;;;;;;;5089403;28;19912;-81
2022/11/28 08:46:01;;;;;;;;;;;;;;;;;;5070652;28;20277;-81
2022/11/28 08:48:26;;;;;;;;;;;;;;;;;;5093177;28;20412;-81
2022/11/28 08:50:51;;;;;;;;;;;;;;;;;;5084281;28;19959;-81
2022/11/28 08:53:16;;;;;;;;;;;;;;;;;;5062144;28;19913;-81
2022/11/28 08:55:43;;;;;;;;;;;;;;;;;;5053689;28;20293;-81
2022/11/28 08:58:08;;;;;;;;;;;;;;;;;;5054906;28;20495;-81
2022/11/28 09:00:33;;;;;;;;;;;;;;;;;;5091814;28;19919;-80
2022/11/28 09:02:58;;;;;;;;;;;;;;;;;;5080762;28;19916;-81
2022/11/28 09:05:23;;;;;;;;;;;;;;;;;;5057556;28;19912;-81
2022/11/28 09:07:49;;;;;;;;;;;;;;;;;;5060844;28;19912;-81
2022/11/28 09:10:14;;;;;;;;;;;;;;;;;;5091058;28;19934;-81
2022/11/28 09:12:39;;;;;;;;;;;;;;;;;;5064458;28;19936;-80
2022/11/28 09:15:04;;;;;;;;;;;;;;;;;;5074370;28;19912;-80
2022/11/28 09:17:29;;;;;;;;;;;;;;;;;;5074266;28;19912;-80
2022/11/28 09:19:54;;;;;;;;;;;;;;;;;;5076396;28;19908;-80
2022/11/28 09:22:20;;;;;;;;;;;;;;;;;;5076631;28;19952;-80
2022/11/28 09:24:45;;;;;;;;;;;;;;;;;;5061528;28;19913;-80
2022/11/28 09:27:10;;;;;;;;;;;;;;;;;;5076190;28;19931;-80
2022/11/28 09:29:35;;;;;;;;;;;;;;;;;;5076162;28;19951;-81
2022/11/28 09:32:00;;;;;;;;;;;;;;;;;;5077542;28;19908;-81
2022/11/28 09:34:26;;;;;;;;;;;;;;;;;;5074722;28;19912;-81
2022/11/28 09:36:51;;;;;;;;;;;;;;;;;;5076145;28;20258;-80
2022/11/28 09:39:16;;;;;;;;;;;;;;;;;;5093144;28;19958;-81
2022/11/28 09:41:41;;;;;;;;;;;;;;;;;;5073450;28;20360;-81
2022/11/28 09:44:06;;;;;;;;;;;;;;;;;;5069730;28;19920;-81
2022/11/28 09:46:32;;;;;;;;;;;;;;;;;;5076910;28;20429;-81
2022/11/28 09:48:57;;;;;;;;;;;;;;;;;;5094394;28;19934;-81
2022/11/28 09:51:22;;;;;;;;;;;;;;;;;;5074799;28;19912;-81
2022/11/28 09:53:47;;;;;;;;;;;;;;;;;;5071421;28;20367;-81
2022/11/28 09:56:12;;;;;;;;;;;;;;;;;;5069530;28;20393;-81
2022/11/28 09:58:37;;;;;;;;;;;;;;;;;;5073962;28;19960;-81
2022/11/28 10:01:02;;;;;;;;;;;;;;;;;;5075862;28;19934;-81
2022/11/28 10:03:28;;;;;;;;;;;;;;;;;;5075728;28;19916;-81
2022/11/28 10:05:53;;;;;;;;;;;;;;;;;;5074810;28;19912;-81
2022/11/28 10:08:18;;;;;;;;;;;;;;;;;;5074998;28;19924;-81
2022/11/28 10:10:44;;;;;;;;;;;;;;;;;;5078699;28;19915;-81
2022/11/28 10:13:09;;;;;;;;;;;;;;;;;;5094939;28;20023;-81
2022/11/28 10:15:35;;;;;;;;;;;;;;;;;;5111780;27;20006;-81
2022/11/28 10:18:00;;;;;;;;;;;;;;;;;;5096202;28;20361;-81
2022/11/28 10:20:25;;;;;;;;;;;;;;;;;;5096346;28;19914;-81
2022/11/28 10:22:52;;;;;;;;;;;;;;;;;;5088816;28;20285;-83
2022/11/28 10:25:17;;;;;;;;;;;;;;;;;;5089433;28;20358;-81
2022/11/28 10:27:42;;;;;;;;;;;;;;;;;;5089422;28;19915;-80
2022/11/28 10:30:08;;;;;;;;;;;;;;;;;;5101597;28;19916;-80
2022/11/28 10:32:33;;;;;;;;;;;;;;;;;;5080715;28;19934;-80
2022/11/28 10:34:58;;;;;;;;;;;;;;;;;;5094999;28;19920;-81
2022/11/28 10:37:24;;;;;;;;;;;;;;;;;;5109929;28;20427;-81
2022/11/28 10:39:49;;;;;;;;;;;;;;;;;;5095984;28;19908;-81
2022/11/28 10:42:15;;;;;;;;;;;;;;;;;;5111866;28;19951;-82
2022/11/28 10:44:40;;;;;;;;;;;;;;;;;;5094706;28;19926;-81
2022/11/28 10:47:05;;;;;;;;;;;;;;;;;;5098068;28;19916;-81
2022/11/28 10:49:30;;;;;;;;;;;;;;;;;;5111392;28;19927;-81
2022/11/28 10:51:55;;;;;;;;;;;;;;;;;;5097622;28;20320;-81
2022/11/28 10:54:21;;;;;;;;;;;;;;;;;;5096767;28;19912;-81
2022/11/28 10:56:46;;;;;;;;;;;;;;;;;;5090626;28;20361;-81
2022/11/28 10:59:11;;;;;;;;;;;;;;;;;;5089621;28;20022;-81
2022/11/28 11:01:36;;;;;;;;;;;;;;;;;;5091186;28;19981;-81
2022/11/28 11:04:01;;;;;;;;;;;;;;;;;;5095626;28;19951;-81
2022/11/28 11:06:26;;;;;;;;;;;;;;;;;;5108868;28;19911;-82
2022/11/28 11:08:52;;;;;;;;;;;;;;;;;;5102166;27;19911;-81
2022/11/28 11:11:17;;;;;;;;;;;;;;;;;;5089514;28;20018;-84
2022/11/28 11:13:42;;;;;;;;;;;;;;;;;;5091647;28;19912;-82
2022/11/28 11:16:07;;;;;;;;;;;;;;;;;;5086675;28;19912;-81
2022/11/28 11:18:33;;;;;;;;;;;;;;;;;;5093887;28;19958;-82
2022/11/28 11:20:58;;;;;;;;;;;;;;;;;;5113490;28;20110;-81
2022/11/28 11:23:23;;;;;;;;;;;;;;;;;;5092994;28;19912;-81
2022/11/28 11:25:48;;;;;;;;;;;;;;;;;;5113398;28;19969;-81
2022/11/28 11:28:14;;;;;;;;;;;;;;;;;;5092195;28;20002;-81
2022/11/28 11:30:41;;;;;;;;;;;;;;;;;;5093989;28;19947;-81
2022/11/28 11:33:07;;;;;;;;;;;;;;;;;;5091649;28;20250;-82
2022/11/28 11:35:32;;;;;;;;;;;;;;;;;;5093532;28;19922;-82
2022/11/28 11:37:57;;;;;;;;;;;;;;;;;;5092271;28;19916;-82
2022/11/28 11:40:22;;;;;;;;;;;;;;;;;;5093430;28;19912;-82
2022/11/28 11:42:47;;;;;;;;;;;;;;;;;;5088030;28;20277;-81
2022/11/28 11:45:12;;;;;;;;;;;;;;;;;;5090273;28;20255;-82
2022/11/28 11:47:37;;;;;;;;;;;;;;;;;;5092603;28;19915;-82
2022/11/28 11:50:03;;;;;;;;;;;;;;;;;;5093178;28;20081;-81
2022/11/28 11:52:28;;;;;;;;;;;;;;;;;;5093097;28;20316;-82
2022/11/28 11:54:53;;;;;;;;;;;;;;;;;;5093367;28;20269;-82
2022/11/28 11:57:18;;;;;;;;;;;;;;;;;;5091648;28;19920;-82
2022/11/28 11:59:43;;;;;;;;;;;;;;;;;;5086692;28;20324;-81
2022/11/28 12:02:08;;;;;;;;;;;;;;;;;;5093350;28;19927;-80
2022/11/28 12:04:34;;;;;;;;;;;;;;;;;;5092532;28;20371;-81
2022/11/28 12:06:59;;;;;;;;;;;;;;;;;;5092963;28;19920;-81
2022/11/28 12:09:24;;;;;;;;;;;;;;;;;;5093625;28;19919;-80
2022/11/28 12:11:49;;;;;;;;;;;;;;;;;;5080768;28;19924;-80
2022/11/28 12:14:14;;;;;;;;;;;;;;;;;;5072842;28;19919;-80
2022/11/28 12:16:40;;;;;;;;;;;;;;;;;;5074313;28;19908;-80
2022/11/28 12:19:05;;;;;;;;;;;;;;;;;;5073980;28;19985;-81
2022/11/28 12:21:31;;;;;;;;;;;;;;;;;;5072657;28;19912;-80
2022/11/28 12:23:56;;;;;;;;;;;;;;;;;;5072047;28;19995;-80
2022/11/28 12:26:21;;;;;;;;;;;;;;;;;;5090351;28;19916;-80
2022/11/28 12:28:47;;;;;;;;;;;;;;;;;;5069919;28;19916;-81
2022/11/28 12:31:12;;;;;;;;;;;;;;;;;;5072308;28;20445;-81
2022/11/28 12:33:38;;;;;;;;;;;;;;;;;;5072836;28;19912;-80
2022/11/28 12:36:03;;;;;;;;;;;;;;;;;;5061972;28;20010;-81
2022/11/28 12:38:30;;;;;;;;;;;;;;;;;;5060743;28;19916;-80
2022/11/28 12:40:55;;;;;;;;;;;;;;;;;;5067302;28;19912;-81
2022/11/28 12:43:20;;;;;;;;;;;;;;;;;;5070938;28;19916;-80
2022/11/28 12:45:45;;;;;;;;;;;;;;;;;;5073166;28;20006;-80
2022/11/28 12:48:10;;;;;;;;;;;;;;;;;;5074365;28;19916;-80
2022/11/28 12:50:35;;;;;;;;;;;;;;;;;;5094340;28;19967;-79
2022/11/28 12:53:01;;;;;;;;;;;;;;;;;;5075193;28;19947;-81
2022/11/28 12:55:26;;;;;;;;;;;;;;;;;;5076145;28;19913;-81
2022/11/28 12:57:52;;;;;;;;;;;;;;;;;;5094477;28;19994;-82
2022/11/28 13:00:17;;;;;;;;;;;;;;;;;;5068557;28;20285;-82
2022/11/28 13:02:42;;;;;;;;;;;;;;;;;;5075780;28;20311;-82
2022/11/28 13:05:09;;;;;;;;;;;;;;;;;;5077205;28;20263;-82
2022/11/28 13:07:34;;;;;;;;;;;;;;;;;;5073321;28;19967;-81
2022/11/28 13:10:00;;;;;;;;;;;;;;;;;;5076355;28;20348;-80
2022/11/28 13:12:25;;;;;;;;;;;;;;;;;;5078894;28;20540;-79
2022/11/28 13:14:51;;;;;;;;;;;;;;;;;;5113413;28;19955;-81
2022/11/28 13:17:16;;;;;;;;;;;;;;;;;;5074064;28;19912;-80
2022/11/28 13:19:41;;;;;;;;;;;;;;;;;;5070242;28;20003;-81
2022/11/28 13:22:06;;;;;;;;;;;;;;;;;;5094460;28;19908;-81
2022/11/28 13:24:31;;;;;;;;;;;;;;;;;;5075404;28;19908;-81
2022/11/28 13:26:58;;;;;;;;;;;;;;;;;;5075408;28;19912;-80
2022/11/28 13:29:24;;;;;;;;;;;;;;;;;;5076252;28;19912;-81
2022/11/28 13:31:49;;;;;;;;;;;;;;;;;;5076836;28;19919;-81
2022/11/28 13:34:14;;;;;;;;;;;;;;;;;;5094356;28;20393;-81
2022/11/28 13:36:39;;;;;;;;;;;;;;;;;;5075186;28;19912;-81
2022/11/28 13:39:05;;;;;;;;;;;;;;;;;;5094304;28;19919;-81
2022/11/28 13:41:30;;;;;;;;;;;;;;;;;;5073696;28;19914;-81
2022/11/28 13:43:55;;;;;;;;;;;;;;;;;;5070493;28;19963;-80
2022/11/28 13:46:20;;;;;;;;;;;;;;;;;;5095347;28;19950;-81
2022/11/28 13:48:47;;;;;;;;;;;;;;;;;;5075794;28;19908;-81
2022/11/28 13:51:12;;;;;;;;;;;;;;;;;;5076043;28;20497;-81
2022/11/28 13:53:37;;;;;;;;;;;;;;;;;;5094222;28;19966;-81
2022/11/28 13:56:02;;;;;;;;;;;;;;;;;;5076062;28;19931;-81
2022/11/28 13:58:28;;;;;;;;;;;;;;;;;;5073625;28;19924;-81
2022/11/28 14:00:53;;;;;;;;;;;;;;;;;;5072640;28;20281;-81
2022/11/28 14:03:18;;;;;;;;;;;;;;;;;;5089733;28;19920;-79
2022/11/28 14:05:43;;;;;;;;;;;;;;;;;;5106125;28;19911;-79
2022/11/28 14:08:08;;;;;;;;;;;;;;;;;;5085646;28;19920;-79
2022/11/28 14:10:33;;;;;;;;;;;;;;;;;;5081680;28;19912;-79
2022/11/28 14:12:58;;;;;;;;;;;;;;;;;;5109045;28;19919;-79
2022/11/28 14:15:24;;;;;;;;;;;;;;;;;;5095054;28;19965;-80
2022/11/28 14:17:49;;;;;;;;;;;;;;;;;;5092289;28;19916;-80
2022/11/28 14:20:15;;;;;;;;;;;;;;;;;;5086614;28;19963;-79
2022/11/28 14:22:40;;;;;;;;;;;;;;;;;;5105376;28;19920;-79
2022/11/28 14:25:05;;;;;;;;;;;;;;;;;;5094761;28;19911;-79
2022/11/28 14:27:30;;;;;;;;;;;;;;;;;;5093343;28;20322;-79
2022/11/28 14:29:55;;;;;;;;;;;;;;;;;;5094286;28;20258;-79
2022/11/28 14:32:20;;;;;;;;;;;;;;;;;;5092987;28;19911;-79
2022/11/28 14:34:46;;;;;;;;;;;;;;;;;;5093777;28;19912;-80
2022/11/28 14:37:11;;;;;;;;;;;;;;;;;;5086369;28;20357;-79
2022/11/28 14:39:36;;;;;;;;;;;;;;;;;;5077076;28;19919;-79
2022/11/28 14:42:01;;;;;;;;;;;;;;;;;;5087056;28;19911;-79
2022/11/28 14:44:27;;;;;;;;;;;;;;;;;;5089007;28;19915;-80
2022/11/28 14:46:52;;;;;;;;;;;;;;;;;;5089230;28;19924;-79
2022/11/28 14:49:17;;;;;;;;;;;;;;;;;;5089135;28;19911;-80
2022/11/28 14:51:42;;;;;;;;;;;;;;;;;;5091936;28;20414;-78
2022/11/28 14:54:07;;;;;;;;;;;;;;;;;;5093082;28;19911;-80
2022/11/28 14:56:32;;;;;;;;;;;;;;;;;;5092614;28;19912;-80
2022/11/28 14:58:58;;;;;;;;;;;;;;;;;;5093378;28;20009;-80
2022/11/28 15:01:23;;;;;;;;;;;;;;;;;;5109266;28;19957;-79
2022/11/28 15:03:48;;;;;;;;;;;;;;;;;;5093076;28;19920;-79
2022/11/28 15:06:13;;;;;;;;;;;;;;;;;;5086050;28;20353;-79
2022/11/28 15:08:38;;;;;;;;;;;;;;;;;;5091919;28;20403;-79
2022/11/28 15:11:04;;;;;;;;;;;;;;;;;;5081376;28;20365;-79
2022/11/28 15:13:29;;;;;;;;;;;;;;;;;;5100436;28;19920;-79
2022/11/28 15:15:54;;;;;;;;;;;;;;;;;;5085029;28;19912;-79
2022/11/28 15:18:19;;;;;;;;;;;;;;;;;;5087476;28;20565;-79
2022/11/28 15:20:46;;;;;;;;;;;;;;;;;;5092098;28;19947;-79
2022/11/28 15:23:11;;;;;;;;;;;;;;;;;;5092844;28;19912;-79
2022/11/28 15:25:38;;;;;;;;;;;;;;;;;;5092054;28;19912;-79
2022/11/28 15:28:03;;;;;;;;;;;;;;;;;;5089396;28;19920;-79
2022/11/28 15:30:28;;;;;;;;;;;;;;;;;;5089293;28;19972;-78
2022/11/28 15:32:53;;;;;;;;;;;;;;;;;;5104506;28;19927;-80
2022/11/28 15:35:19;;;;;;;;;;;;;;;;;;5086229;28;20285;-78
2022/11/28 15:37:44;;;;;;;;;;;;;;;;;;5085250;28;19912;-85
2022/11/28 15:40:09;;;;;;;;;;;;;;;;;;5082821;28;19943;-78
2022/11/28 15:42:34;;;;;;;;;;;;;;;;;;5101512;28;19919;-79
2022/11/28 15:44:59;;;;;;;;;;;;;;;;;;5091333;28;19959;-78
2022/11/28 15:47:24;;;;;;;;;;;;;;;;;;5083077;28;19919;-79
2022/11/28 15:49:49;;;;;;;;;;;;;;;;;;5098229;27;19949;-79
2022/11/28 15:52:15;;;;;;;;;;;;;;;;;;5092730;28;19908;-79
2022/11/28 15:54:40;;;;;;;;;;;;;;;;;;5091492;28;19972;-79
2022/11/28 15:57:06;;;;;;;;;;;;;;;;;;5090710;28;19928;-79
2022/11/28 15:59:31;;;;;;;;;;;;;;;;;;5108263;28;19920;-78
2022/11/28 16:01:56;;;;;;;;;;;;;;;;;;5108565;28;19912;-78
2022/11/28 16:04:21;;;;;;;;;;;;;;;;;;5087741;28;20073;-78
2022/11/28 16:06:47;;;;;;;;;;;;;;;;;;5086457;28;19953;-78
2022/11/28 16:09:12;;;;;;;;;;;;;;;;;;5079308;28;19912;-79
2022/11/28 16:11:37;;;;;;;;;;;;;;;;;;5084525;28;20321;-79
2022/11/28 16:14:02;;;;;;;;;;;;;;;;;;5081742;28;20426;-78
2022/11/28 16:16:27;;;;;;;;;;;;;;;;;;5081036;28;19918;-78
2022/11/28 16:18:52;;;;;;;;;;;;;;;;;;5110551;28;19923;-79
2022/11/28 16:21:17;;;;;;;;;;;;;;;;;;5090719;28;19998;-79
2022/11/28 16:23:43;;;;;;;;;;;;;;;;;;5089360;28;19993;-78
2022/11/28 16:26:08;;;;;;;;;;;;;;;;;;5109057;28;19919;-78
2022/11/28 16:28:33;;;;;;;;;;;;;;;;;;5111004;28;19916;-78
2022/11/28 16:30:58;;;;;;;;;;;;;;;;;;5093737;28;19915;-79